KAEX/AEX METAR and TAF weather

Enter ICAO airport designator
Station Type Date Time Source
KAEX METAR 2021/05/11 01:53 UTC NOAA

KAEX 110153Z 33014G21KT 10SM FEW036 SCT060 BKN100 22/19 A2999 RMK AO2 LTG DSNT N AND NE PRESRR SLP159 T02220194


Station Type Date Time Source
KAEX Decoded METAR 2021/05/11 01:53 UTC NOAA

ALEXANDRIA INTERNATIONAL AIRPORT, LA, United States (KAEX) 31-33N 092-56W 27M
May 10, 2021 - 09:53 PM EDT / 2021.05.11 0153 UTC
Wind: from the NNW (330 degrees) at 16 MPH (14 KT) gusting to 24 MPH (21 KT):0
Visibility: 10 mile(s):0
Sky conditions: mostly cloudy
Weather: Lightning observed
Temperature: 72.0 F (22.2 C)
Dew Point: 66.9 F (19.4 C)
Relative Humidity: 84%
Pressure (altimeter): 29.99 in. Hg (1015 hPa)
Pressure tendency: rising rapidly
ob: KAEX 110153Z 33014G21KT 10SM FEW036 SCT060 BKN100 22/19 A2999 RMK AO2 LTG DSNT N AND NE PRESRR SLP159 T02220194
cycle: 2

Station Type Date Time Source
KAEX TAF 2021/05/10 18:42 UTC NOAA

TAF KAEX 101735Z 1018/1118 12008KT P6SM FEW020 OVC040
FM102300 05008KT 6SM BR OVC015
FM111100 VRB05KT 5SM BR OVC007
FM111400 10007KT 6SM BR OVC007

Example: see airport list